Time;durP1;ratioP1;P1;durP2;ratioP2;P2;SDS_P1;SDS_P2;PMS_P1;PMS_P2;Temp;Humidity;BMP_temperature;BMP_pressure;BME280_temperature;BME280_humidity;BME280_pressure;Samples;Min_cycle;Max_cycle;Signal;HPM_P1;HPM_P2
2022/09/29 00:01:48;;;;;;;9.18;7.60;;;6.50;99.90;;;;;;4846247;29;20072;-81
2022/09/29 00:04:14;;;;;;;13.75;8.80;;;6.40;99.90;;;;;;4834340;29;20409;-82
2022/09/29 00:06:39;;;;;;;11.52;8.32;;;6.50;99.90;;;;;;4850621;29;20041;-81
2022/09/29 00:09:05;;;;;;;10.80;8.45;;;6.40;99.90;;;;;;4855746;29;20045;-82
2022/09/29 00:11:31;;;;;;;10.35;8.55;;;6.40;99.90;;;;;;4847478;29;20043;-82
2022/09/29 00:13:57;;;;;;;12.93;9.85;;;6.40;99.90;;;;;;4817547;29;20494;-82
2022/09/29 00:16:23;;;;;;;15.18;10.25;;;6.40;99.90;;;;;;4836000;29;20177;-81
2022/09/29 00:18:48;;;;;;;12.13;9.50;;;6.50;99.90;;;;;;4852225;29;20128;-82
2022/09/29 00:21:18;;;;;;;11.25;8.98;;;6.40;99.90;;;;;;4849372;29;20048;-82
2022/09/29 00:23:44;;;;;;;12.75;10.13;;;6.50;99.90;;;;;;4833085;29;20282;-82
2022/09/29 00:26:16;;;;;;;11.18;9.45;;;6.40;99.90;;;;;;4834180;29;20052;-82
2022/09/29 00:28:54;;;;;;;12.07;9.68;;;6.40;99.90;;;;;;4849077;29;20116;-82
2022/09/29 00:31:20;;;;;;;40.45;10.57;;;6.40;99.90;;;;;;4846901;29;20321;-81
2022/09/29 00:33:46;;;;;;;10.35;8.18;;;6.40;99.90;;;;;;4851288;29;20202;-82
2022/09/29 00:36:14;;;;;;;9.50;7.85;;;6.40;99.90;;;;;;4850633;29;20037;-82
2022/09/29 00:38:42;;;;;;;10.38;8.23;;;6.20;99.90;;;;;;4849986;29;20049;-82
2022/09/29 00:41:16;;;;;;;11.45;8.30;;;6.40;99.90;;;;;;4813945;29;20394;-81
2022/09/29 00:44:01;;;;;;;11.38;7.70;;;6.30;99.90;;;;;;4846193;29;20121;-82
2022/09/29 00:46:38;;;;;;;9.00;7.27;;;6.20;99.90;;;;;;4844861;29;20502;-82
2022/09/29 00:49:16;;;;;;;9.82;7.85;;;6.20;99.90;;;;;;4829983;29;20344;-82
2022/09/29 00:51:52;;;;;;;9.60;7.63;;;6.20;99.90;;;;;;4852458;29;20045;-81
2022/09/29 00:54:19;;;;;;;10.73;8.35;;;6.30;99.90;;;;;;4830611;29;20513;-82
2022/09/29 00:56:47;;;;;;;11.85;8.60;;;6.20;99.90;;;;;;4833761;29;20936;-81
2022/09/29 00:59:22;;;;;;;12.02;9.00;;;6.20;99.90;;;;;;4840546;29;20060;-81
2022/09/29 01:01:47;;;;;;;;;;;6.20;99.90;;;;;;4833291;29;20056;-81
2022/09/29 01:04:17;;;;;;;14.05;10.20;;;6.20;99.90;;;;;;4817577;29;19924;-81
2022/09/29 01:06:50;;;;;;;104.93;11.75;;;6.30;99.90;;;;;;4849992;29;20109;-82
2022/09/29 01:09:20;;;;;;;28.23;7.70;;;5.90;99.90;;;;;;4852711;29;20358;-81
2022/09/29 01:11:46;;;;;;;12.10;6.75;;;6.00;99.90;;;;;;4832414;29;20029;-82
2022/09/29 01:14:12;;;;;;;8.52;7.38;;;5.90;99.90;;;;;;4815651;29;20089;-82
2022/09/29 01:16:38;;;;;;;9.20;7.60;;;5.90;99.90;;;;;;4836058;29;20080;-82
2022/09/29 01:19:38;;;;;;;9.43;7.72;;;5.90;99.90;;;;;;4852570;29;20387;-82
2022/09/29 01:22:24;;;;;;;9.15;7.80;;;5.90;99.90;;;;;;4832255;29;20052;-82
2022/09/29 01:24:59;;;;;;;26.05;11.45;;;6.00;99.90;;;;;;4861035;29;20438;-81
2022/09/29 01:27:52;;;;;;;11.23;9.00;;;6.10;99.90;;;;;;4834710;29;20073;-82
2022/09/29 01:30:21;;;;;;;12.23;8.60;;;6.00;99.90;;;;;;4845485;29;20119;-82
2022/09/29 01:33:28;;;;;;;14.10;10.02;;;5.90;99.90;;;;;;4847147;29;20037;-82
2022/09/29 01:36:28;;;;;;;12.10;9.30;;;6.00;99.90;;;;;;4836645;29;20210;-82
2022/09/29 01:39:03;;;;;;;11.73;8.88;;;5.90;99.90;;;;;;4833256;29;20132;-82
2022/09/29 01:41:49;;;;;;;11.18;8.15;;;5.90;99.90;;;;;;4829197;29;20053;-82
2022/09/29 01:44:24;;;;;;;11.70;8.23;;;6.10;99.90;;;;;;4829412;29;20379;-82
2022/09/29 01:47:10;;;;;;;10.65;8.70;;;6.10;99.90;;;;;;4849754;29;20063;-82
2022/09/29 01:49:45;;;;;;;13.63;9.18;;;5.90;99.90;;;;;;4832104;29;20214;-82
2022/09/29 01:52:16;;;;;;;12.15;9.15;;;6.00;99.90;;;;;;4861991;29;20044;-82
2022/09/29 01:54:59;;;;;;;10.32;8.05;;;5.90;99.90;;;;;;4848541;29;20239;-82
2022/09/29 01:57:30;;;;;;;10.45;8.35;;;5.80;99.90;;;;;;4865760;29;20075;-82
2022/09/29 02:00:10;;;;;;;10.98;7.97;;;5.80;99.90;;;;;;4866369;29;20047;-82
2022/09/29 02:02:59;;;;;;;11.98;9.25;;;5.80;99.90;;;;;;4849149;29;20488;-82
2022/09/29 02:05:32;;;;;;;12.02;8.98;;;5.90;99.90;;;;;;4863951;29;20530;-82
2022/09/29 02:08:07;;;;;;;10.45;8.27;;;5.80;99.90;;;;;;4850316;29;20572;-82
2022/09/29 02:10:40;;;;;;;12.65;9.32;;;5.80;99.90;;;;;;4869374;29;20029;-82
2022/09/29 02:13:08;;;;;;;12.30;9.15;;;5.80;99.90;;;;;;4850376;29;20025;-82
2022/09/29 02:15:41;;;;;;;19.10;11.93;;;5.80;99.90;;;;;;4863259;29;20044;-82
2022/09/29 02:18:15;;;;;;;86.20;16.98;;;6.00;99.90;;;;;;4851554;29;20045;-82
2022/09/29 02:20:40;;;;;;;102.97;15.48;;;6.00;99.90;;;;;;4851285;29;20073;-82
2022/09/29 02:23:06;;;;;;;183.02;19.10;;;5.90;99.90;;;;;;4862436;29;20127;-82
2022/09/29 02:25:37;;;;;;;21.08;10.60;;;5.90;99.90;;;;;;4879490;29;20041;-82
2022/09/29 02:28:03;;;;;;;23.67;11.52;;;6.00;99.90;;;;;;4835172;29;20073;-82
2022/09/29 02:30:29;;;;;;;12.85;10.02;;;6.00;99.90;;;;;;4834128;29;20052;-82
2022/09/29 02:32:55;;;;;;;17.98;13.00;;;5.90;99.90;;;;;;4833001;29;20285;-82
2022/09/29 02:35:21;;;;;;;18.42;11.88;;;5.80;99.90;;;;;;4868788;29;20131;-82
2022/09/29 02:37:53;;;;;;;16.60;11.05;;;5.80;99.90;;;;;;4878994;29;20408;-82
2022/09/29 02:40:36;;;;;;;15.90;11.77;;;5.90;99.90;;;;;;4850978;29;20557;-82
2022/09/29 02:43:32;;;;;;;14.82;10.57;;;5.80;99.90;;;;;;4850768;29;20050;-82
2022/09/29 02:46:15;;;;;;;15.98;9.18;;;5.80;99.90;;;;;;4870330;29;20083;-82
2022/09/29 02:48:59;;;;;;;46.88;9.25;;;5.70;99.90;;;;;;4851496;29;20229;-82
2022/09/29 02:51:38;;;;;;;21.92;7.65;;;5.70;99.90;;;;;;4854712;29;20176;-82
2022/09/29 02:54:18;;;;;;;11.38;8.50;;;5.60;99.90;;;;;;4866200;29;20049;-82
2022/09/29 02:57:02;;;;;;;12.35;9.20;;;5.70;99.90;;;;;;4872810;29;20055;-82
2022/09/29 02:59:38;;;;;;;22.08;9.77;;;5.60;99.90;;;;;;4864362;29;20040;-82
2022/09/29 03:02:04;;;;;;;14.45;9.13;;;5.60;99.90;;;;;;4863048;29;20383;-82
2022/09/29 03:04:30;;;;;;;47.55;11.82;;;5.60;99.90;;;;;;4849692;29;20451;-82
2022/09/29 03:06:56;;;;;;;11.02;8.18;;;5.50;99.90;;;;;;4867011;29;20265;-82
2022/09/29 03:09:21;;;;;;;9.23;8.02;;;5.50;99.90;;;;;;4865262;29;20209;-82
2022/09/29 03:11:47;;;;;;;14.10;9.00;;;5.50;99.90;;;;;;4848348;29;20040;-82
2022/09/29 03:14:13;;;;;;;15.77;9.45;;;5.50;99.90;;;;;;4877980;29;20037;-82
2022/09/29 03:16:39;;;;;;;11.25;8.90;;;5.50;99.90;;;;;;4850085;29;20124;-82
2022/09/29 03:19:06;;;;;;;11.18;9.00;;;5.40;99.90;;;;;;4845467;29;20049;-82
2022/09/29 03:21:32;;;;;;;13.98;8.73;;;5.50;99.90;;;;;;4866954;29;20417;-82
2022/09/29 03:23:57;;;;;;;9.95;8.60;;;5.50;99.90;;;;;;4850125;29;20060;-82
2022/09/29 03:26:24;;;;;;;15.00;9.75;;;5.50;99.90;;;;;;4845231;29;20057;-81
2022/09/29 03:28:50;;;;;;;11.85;9.18;;;5.60;99.90;;;;;;4863185;29;20065;-82
2022/09/29 03:31:16;;;;;;;11.60;9.00;;;5.60;99.90;;;;;;4862007;29;20428;-82
2022/09/29 03:33:42;;;;;;;12.52;9.57;;;5.40;99.90;;;;;;4849102;29;20032;-82
2022/09/29 03:36:08;;;;;;;13.43;10.73;;;5.40;99.90;;;;;;4865361;29;20045;-82
2022/09/29 03:38:34;;;;;;;11.60;9.55;;;5.40;99.90;;;;;;4866924;29;20045;-82
2022/09/29 03:41:00;;;;;;;11.95;9.90;;;5.40;99.90;;;;;;4861956;29;20703;-81
2022/09/29 03:43:26;;;;;;;17.75;10.57;;;5.40;99.90;;;;;;4864387;29;20044;-82
2022/09/29 03:45:54;;;;;;;68.78;15.35;;;5.50;99.90;;;;;;4850514;29;20522;-82
2022/09/29 03:48:20;;;;;;;17.23;10.05;;;5.40;99.90;;;;;;4831571;29;20048;-82
2022/09/29 03:50:47;;;;;;;13.70;9.93;;;5.40;99.90;;;;;;4852302;29;20075;-82
2022/09/29 03:53:14;;;;;;;16.38;11.30;;;5.30;99.90;;;;;;4850266;29;20512;-82
2022/09/29 03:55:40;;;;;;;12.48;9.43;;;5.20;99.90;;;;;;4847653;29;20683;-82
2022/09/29 03:58:06;;;;;;;71.18;8.80;;;5.30;99.90;;;;;;4848319;29;20120;-82
2022/09/29 04:00:32;;;;;;;112.00;11.70;;;5.00;99.90;;;;;;4844895;29;20125;-82
2022/09/29 04:02:58;;;;;;;124.72;14.85;;;5.00;99.90;;;;;;4848329;29;20079;-82
2022/09/29 04:05:24;;;;;;;47.80;10.05;;;5.00;99.90;;;;;;4862995;29;20084;-82
2022/09/29 04:07:49;;;;;;;14.98;9.82;;;5.10;99.90;;;;;;4868488;29;20142;-82
2022/09/29 04:10:15;;;;;;;12.98;9.35;;;5.10;99.90;;;;;;4847448;29;20263;-82
2022/09/29 04:12:41;;;;;;;22.05;10.18;;;5.10;99.90;;;;;;4831162;29;20277;-82
2022/09/29 04:15:07;;;;;;;170.63;17.20;;;5.10;99.90;;;;;;4832259;29;20124;-82
2022/09/29 04:17:33;;;;;;;149.07;19.58;;;5.00;99.90;;;;;;4851622;29;20048;-82
2022/09/29 04:19:59;;;;;;;24.63;9.88;;;5.10;99.90;;;;;;4856634;29;20092;-82
2022/09/29 04:22:24;;;;;;;14.98;9.63;;;5.10;99.90;;;;;;4867287;29;20136;-82
2022/09/29 04:24:51;;;;;;;54.22;10.13;;;5.00;99.90;;;;;;4846748;29;20445;-82
2022/09/29 04:27:17;;;;;;;14.25;9.93;;;5.10;99.90;;;;;;4852429;29;20063;-83
2022/09/29 04:29:43;;;;;;;11.90;9.20;;;5.00;99.90;;;;;;4864736;29;20079;-81
2022/09/29 04:32:09;;;;;;;13.98;10.27;;;5.00;99.90;;;;;;4845594;29;20045;-82
2022/09/29 04:34:35;;;;;;;13.98;10.43;;;5.00;99.90;;;;;;4859649;29;20037;-82
2022/09/29 04:37:10;;;;;;;16.50;10.05;;;5.00;99.90;;;;;;4866247;29;20070;-82
2022/09/29 04:39:35;;;;;;;11.10;9.65;;;5.00;99.90;;;;;;4850077;29;20033;-82
2022/09/29 04:42:01;;;;;;;14.55;10.07;;;5.00;99.90;;;;;;4865339;29;20047;-82
2022/09/29 04:44:27;;;;;;;15.85;11.00;;;5.10;99.90;;;;;;4829444;29;20189;-82
2022/09/29 04:46:53;;;;;;;14.90;11.32;;;5.00;99.90;;;;;;4852103;29;20076;-82
2022/09/29 04:49:19;;;;;;;14.15;10.18;;;5.10;99.90;;;;;;4859658;29;20045;-82
2022/09/29 04:51:45;;;;;;;17.63;9.43;;;5.00;99.90;;;;;;4852651;29;20049;-82
2022/09/29 04:54:11;;;;;;;42.08;13.35;;;4.90;99.90;;;;;;4864202;29;20139;-82
2022/09/29 04:56:36;;;;;;;14.38;11.15;;;5.10;99.90;;;;;;4868406;29;20557;-82
2022/09/29 04:59:02;;;;;;;15.85;11.27;;;5.00;99.90;;;;;;4859872;29;20542;-82
2022/09/29 05:01:30;;;;;;;17.05;12.07;;;5.10;99.90;;;;;;4861851;29;20210;-82
2022/09/29 05:03:56;;;;;;;17.70;11.88;;;5.10;99.90;;;;;;4863269;29;20040;-82
2022/09/29 05:06:22;;;;;;;18.77;12.68;;;5.20;99.90;;;;;;4850506;29;20213;-82
2022/09/29 05:08:48;;;;;;;89.22;20.17;;;5.00;99.90;;;;;;4866540;29;20174;-82
2022/09/29 05:11:13;;;;;;;14.82;10.63;;;5.10;99.90;;;;;;4849459;29;20163;-82
2022/09/29 05:13:39;;;;;;;26.23;12.52;;;5.10;99.90;;;;;;4850624;29;20438;-82
2022/09/29 05:16:06;;;;;;;32.55;10.98;;;5.20;99.90;;;;;;4848713;29;20053;-82
2022/09/29 05:18:31;;;;;;;32.60;10.75;;;5.20;99.90;;;;;;4866898;29;20052;-82
2022/09/29 05:21:07;;;;;;;107.63;15.82;;;5.10;99.90;;;;;;4832976;29;20045;-82
2022/09/29 05:23:33;;;;;;;22.15;11.02;;;5.10;99.90;;;;;;4857980;29;20045;-82
2022/09/29 05:26:07;;;;;;;16.73;11.35;;;5.10;99.90;;;;;;4870560;29;20048;-82
2022/09/29 05:28:35;;;;;;;15.90;10.50;;;5.20;99.90;;;;;;4883042;29;20119;-82
2022/09/29 05:31:06;;;;;;;218.30;20.05;;;5.10;99.90;;;;;;4845803;29;20040;-82
2022/09/29 05:33:35;;;;;;;218.00;20.48;;;5.20;99.90;;;;;;4858037;29;20045;-82
2022/09/29 05:36:07;;;;;;;68.07;12.63;;;5.20;99.90;;;;;;4836587;29;20131;-82
2022/09/29 05:38:34;;;;;;;15.70;10.73;;;5.10;99.90;;;;;;4835633;29;20072;-82
2022/09/29 05:41:09;;;;;;;14.90;10.30;;;5.10;99.90;;;;;;4854629;29;20096;-82
2022/09/29 05:43:35;;;;;;;17.25;10.30;;;5.00;99.90;;;;;;4859929;29;20051;-82
2022/09/29 05:46:03;;;;;;;332.70;22.90;;;5.10;99.90;;;;;;4869959;29;20048;-82
2022/09/29 05:48:32;;;;;;;71.30;11.05;;;5.10;99.90;;;;;;4865080;29;20119;-82
2022/09/29 05:50:58;;;;;;;16.58;9.35;;;5.10;99.90;;;;;;4834391;29;20343;-83
2022/09/29 05:53:25;;;;;;;12.48;9.35;;;5.10;99.90;;;;;;4853968;29;20414;-82
2022/09/29 05:55:51;;;;;;;16.88;10.60;;;5.00;99.90;;;;;;4855211;29;20048;-82
2022/09/29 05:58:17;;;;;;;106.53;14.23;;;5.10;99.90;;;;;;4866122;29;20128;-82
2022/09/29 06:00:43;;;;;;;92.13;15.20;;;5.20;99.90;;;;;;4865227;29;20047;-81
2022/09/29 06:03:09;;;;;;;103.78;16.20;;;5.10;99.90;;;;;;4869537;29;20037;-83
2022/09/29 06:05:38;;;;;;;12.18;10.35;;;5.20;99.90;;;;;;4869318;29;20051;-82
2022/09/29 06:08:04;;;;;;;13.98;10.88;;;5.20;99.90;;;;;;4858779;29;20045;-82
2022/09/29 06:10:30;;;;;;;68.10;14.85;;;5.30;99.90;;;;;;4848875;29;20453;-82
2022/09/29 06:12:56;;;;;;;36.90;10.48;;;5.30;99.90;;;;;;4852340;29;20070;-82
2022/09/29 06:15:22;;;;;;;13.75;10.88;;;5.30;99.90;;;;;;4850267;29;20112;-82
2022/09/29 06:17:57;;;;;;;14.55;11.38;;;5.40;99.90;;;;;;4858067;29;20381;-82
2022/09/29 06:20:24;;;;;;;14.82;11.55;;;5.60;99.90;;;;;;4871828;29;20052;-82
2022/09/29 06:22:55;;;;;;;15.63;11.73;;;5.60;99.90;;;;;;4868982;29;20053;-82
2022/09/29 06:25:22;;;;;;;16.60;12.27;;;5.80;99.90;;;;;;4850583;29;20053;-82
2022/09/29 06:27:48;;;;;;;16.08;11.55;;;5.80;99.90;;;;;;4855444;29;20056;-82
2022/09/29 06:30:14;;;;;;;11.93;9.27;;;5.80;99.90;;;;;;4835119;29;20037;-83
2022/09/29 06:32:40;;;;;;;14.85;10.95;;;5.70;99.90;;;;;;4868059;29;20398;-82
2022/09/29 06:37:55;;;;;;;43.78;11.70;;;5.80;99.90;;;;;;4872224;29;20497;-82
2022/09/29 06:40:22;;;;;;;91.13;12.80;;;5.80;99.90;;;;;;4831657;29;20041;-82
2022/09/29 06:42:48;;;;;;;11.98;9.93;;;5.80;99.90;;;;;;4834522;29;20045;-82
2022/09/29 06:45:14;;;;;;;10.57;8.52;;;5.90;99.90;;;;;;4852487;29;20127;-83
2022/09/29 06:47:40;;;;;;;10.52;8.98;;;5.90;99.90;;;;;;4848547;29;20044;-83
2022/09/29 06:50:06;;;;;;;18.60;10.48;;;5.90;99.90;;;;;;4853762;29;20040;-82
2022/09/29 06:52:31;;;;;;;11.45;9.98;;;6.00;99.90;;;;;;4867486;29;20419;-82
2022/09/29 06:54:57;;;;;;;13.40;10.40;;;6.10;99.90;;;;;;4856090;29;20048;-82
2022/09/29 06:57:23;;;;;;;16.67;11.60;;;6.30;99.90;;;;;;4848574;29;20041;-82
2022/09/29 06:59:49;;;;;;;14.88;11.93;;;6.40;99.90;;;;;;4852091;29;20045;-83
2022/09/29 07:02:15;;;;;;;18.50;13.98;;;6.30;99.90;;;;;;4830855;29;20045;-83
2022/09/29 07:04:40;;;;;;;19.45;14.60;;;6.60;99.90;;;;;;4867244;29;20055;-83
2022/09/29 07:07:06;;;;;;;19.33;14.02;;;6.70;99.90;;;;;;4854323;29;20457;-83
2022/09/29 07:09:32;;;;;;;22.00;15.65;;;6.90;99.90;;;;;;4867051;29;20037;-83
2022/09/29 07:12:00;;;;;;;22.23;16.08;;;6.90;99.90;;;;;;4867772;29;20296;-83
2022/09/29 07:14:26;;;;;;;25.40;16.90;;;7.00;99.90;;;;;;4865646;29;20044;-82
2022/09/29 07:16:52;;;;;;;24.17;17.10;;;7.10;99.90;;;;;;4868666;29;20064;-83
2022/09/29 07:19:18;;;;;;;24.30;17.38;;;7.20;99.90;;;;;;4863704;29;20041;-82
2022/09/29 07:21:45;;;;;;;27.42;18.83;;;7.30;99.90;;;;;;4870765;29;20033;-82
2022/09/29 07:24:11;;;;;;;26.30;18.52;;;7.40;99.90;;;;;;4851196;29;20059;-83
2022/09/29 07:26:37;;;;;;;27.45;19.92;;;7.50;99.90;;;;;;4863767;29;20037;-83
2022/09/29 07:29:03;;;;;;;28.35;19.75;;;7.60;99.90;;;;;;4871899;29;20041;-82
2022/09/29 07:31:28;;;;;;;31.45;20.77;;;7.70;99.90;;;;;;4864875;29;20080;-83
2022/09/29 07:33:55;;;;;;;32.08;21.83;;;7.80;99.90;;;;;;4879409;29;20128;-83
2022/09/29 07:36:21;;;;;;;31.35;21.60;;;8.00;99.90;;;;;;4867590;29;20037;-83
2022/09/29 07:38:49;;;;;;;32.92;22.20;;;8.20;99.90;;;;;;4872435;29;20140;-83
2022/09/29 07:41:15;;;;;;;34.55;23.23;;;8.20;99.90;;;;;;4847403;29;20120;-83
2022/09/29 07:43:41;;;;;;;32.80;21.88;;;8.40;99.90;;;;;;4846744;29;20041;-83
2022/09/29 07:46:08;;;;;;;32.45;21.58;;;8.50;99.90;;;;;;4878205;29;20121;-83
2022/09/29 07:48:35;;;;;;;31.02;21.67;;;8.60;99.90;;;;;;4864382;29;20124;-83
2022/09/29 07:51:18;;;;;;;28.25;20.92;;;8.70;99.90;;;;;;4857862;29;20068;-82
2022/09/29 07:53:44;;;;;;;32.55;20.80;;;8.90;99.90;;;;;;4842561;29;20158;-83
2022/09/29 07:56:19;;;;;;;30.90;19.75;;;9.00;99.90;;;;;;4864006;29;20040;-82
2022/09/29 07:58:46;;;;;;;29.92;19.85;;;9.10;99.90;;;;;;4855564;29;20378;-83
2022/09/29 08:01:14;;;;;;;29.95;17.98;;;9.20;99.90;;;;;;4863217;29;20045;-83
2022/09/29 08:03:48;;;;;;;26.52;18.60;;;9.40;99.90;;;;;;4849464;29;20101;-83
2022/09/29 08:06:13;;;;;;;29.80;19.05;;;9.60;99.90;;;;;;4851484;29;20056;-83
2022/09/29 08:08:40;;;;;;;29.33;19.10;;;9.70;99.90;;;;;;4849717;29;20049;-83
2022/09/29 08:11:10;;;;;;;28.20;17.67;;;9.80;99.90;;;;;;4853138;29;20037;-83
2022/09/29 08:13:36;;;;;;;24.45;17.60;;;9.90;99.90;;;;;;4849388;29;20065;-84
2022/09/29 08:16:09;;;;;;;24.15;16.42;;;9.90;99.90;;;;;;4850092;29;20401;-84
2022/09/29 08:18:35;;;;;;;21.23;16.20;;;10.10;99.90;;;;;;4882023;29;20067;-84
2022/09/29 08:21:03;;;;;;;20.90;14.77;;;10.10;99.90;;;;;;4851996;29;20049;-83
2022/09/29 08:23:30;;;;;;;22.98;16.17;;;10.30;99.90;;;;;;4849731;29;20119;-83
2022/09/29 08:26:01;;;;;;;22.63;15.90;;;10.40;99.90;;;;;;4868619;29;20528;-83
2022/09/29 08:28:31;;;;;;;18.15;14.45;;;10.50;99.90;;;;;;4863728;29;20041;-83
2022/09/29 08:31:01;;;;;;;20.20;14.48;;;10.60;99.90;;;;;;4868639;29;20136;-84
2022/09/29 08:33:27;;;;;;;18.08;13.98;;;10.60;99.90;;;;;;4856425;29;20044;-83
2022/09/29 08:35:57;;;;;;;17.80;14.18;;;10.70;99.90;;;;;;4873333;29;20036;-83
2022/09/29 08:38:23;;;;;;;15.05;12.57;;;10.80;99.90;;;;;;4853892;29;20053;-83
2022/09/29 08:40:49;;;;;;;16.25;12.75;;;10.90;99.90;;;;;;4869140;29;20055;-83
2022/09/29 08:43:47;;;;;;;18.15;13.02;;;11.20;99.90;;;;;;4855498;29;20500;-84
2022/09/29 08:46:29;;;;;;;16.40;11.95;;;11.20;99.90;;;;;;4840888;29;20052;-84
2022/09/29 08:48:56;;;;;;;15.32;11.45;;;11.20;99.90;;;;;;4852537;29;20124;-84
2022/09/29 08:51:38;;;;;;;11.73;10.35;;;11.40;99.90;;;;;;4854315;29;20052;-84
2022/09/29 08:54:15;;;;;;;13.40;10.55;;;11.50;99.90;;;;;;4864500;29;20056;-84
2022/09/29 08:56:41;;;;;;;12.93;9.40;;;11.60;99.90;;;;;;4833463;29;20033;-83
2022/09/29 08:59:10;;;;;;;11.63;9.38;;;11.80;99.90;;;;;;4871499;29;20044;-84
2022/09/29 09:02:07;;;;;;;9.60;7.63;;;11.80;99.90;;;;;;4883234;29;20068;-84
2022/09/29 09:04:51;;;;;;;7.80;6.35;;;11.90;99.90;;;;;;4849499;29;20470;-83
2022/09/29 09:07:17;;;;;;;9.10;7.27;;;11.90;99.90;;;;;;4852817;29;20129;-84
2022/09/29 09:10:05;;;;;;;9.90;6.60;;;12.10;99.90;;;;;;4851019;29;20736;-83
2022/09/29 09:12:50;;;;;;;8.77;6.70;;;12.00;99.90;;;;;;4869969;29;20127;-82
2022/09/29 09:15:25;;;;;;;6.93;5.93;;;12.10;99.90;;;;;;4857393;29;20047;-82
2022/09/29 09:18:18;;;;;;;6.93;5.78;;;12.10;99.90;;;;;;4833859;29;20061;-82
2022/09/29 09:21:03;;;;;;;8.63;6.30;;;12.20;99.90;;;;;;4849339;29;20139;-82
2022/09/29 09:23:38;;;;;;;8.05;6.40;;;12.30;99.90;;;;;;4862953;29;20056;-82
2022/09/29 09:26:08;;;;;;;7.75;5.90;;;12.40;99.90;;;;;;4850546;29;20049;-82
2022/09/29 09:28:46;;;;;;;10.63;6.10;;;12.40;99.90;;;;;;4853439;29;20145;-82
2022/09/29 09:31:19;;;;;;;6.55;5.75;;;12.50;99.90;;;;;;4859937;29;20603;-82
2022/09/29 09:33:59;;;;;;;6.63;5.40;;;12.50;99.90;;;;;;4847529;29;20057;-81
2022/09/29 09:36:36;;;;;;;5.80;5.20;;;12.60;99.90;;;;;;4853360;29;20052;-82
2022/09/29 09:39:25;;;;;;;5.97;4.50;;;12.70;99.90;;;;;;4845564;29;20048;-82
2022/09/29 09:41:55;;;;;;;5.38;4.78;;;12.80;99.90;;;;;;4848316;29;20208;-82
2022/09/29 09:44:32;;;;;;;5.38;4.88;;;12.90;99.90;;;;;;4866729;29;20049;-82
2022/09/29 09:47:14;;;;;;;6.20;5.10;;;12.90;99.90;;;;;;4854832;29;20148;-82
2022/09/29 09:49:51;;;;;;;5.97;4.88;;;13.00;99.90;;;;;;4876716;29;20820;-82
2022/09/29 09:52:31;;;;;;;5.13;4.25;;;13.10;99.90;;;;;;4875038;29;20132;-82
2022/09/29 09:55:01;;;;;;;3.85;2.95;;;13.20;99.90;;;;;;4839808;29;20053;-82
2022/09/29 09:57:44;;;;;;;3.45;2.95;;;13.40;99.90;;;;;;4845592;29;20033;-82
2022/09/29 10:00:09;;;;;;;3.63;2.63;;;13.40;99.90;;;;;;4835059;29;20033;-81
2022/09/29 10:02:48;;;;;;;3.97;2.70;;;13.40;99.90;;;;;;4846924;29;20044;-81
2022/09/29 10:05:17;;;;;;;3.53;2.95;;;13.40;99.90;;;;;;4836998;29;20032;-82
2022/09/29 10:07:43;;;;;;;3.60;3.30;;;13.50;99.90;;;;;;4847293;29;20073;-82
2022/09/29 10:10:21;;;;;;;5.40;3.55;;;13.60;99.90;;;;;;4831841;29;20097;-82
2022/09/29 10:13:04;;;;;;;3.70;3.00;;;13.80;99.90;;;;;;4835098;29;20049;-82
2022/09/29 10:15:54;;;;;;;4.13;3.38;;;13.80;99.90;;;;;;4818736;29;20045;-81
2022/09/29 10:18:26;;;;;;;5.22;3.40;;;13.80;99.90;;;;;;4849944;29;20037;-82
2022/09/29 10:20:52;;;;;;;3.35;2.92;;;14.10;99.90;;;;;;4870900;29;20045;-82
2022/09/29 10:23:27;;;;;;;5.88;3.75;;;14.00;99.90;;;;;;4846391;29;20045;-81
2022/09/29 10:25:52;;;;;;;;;;;14.20;24.80;;;;;;4829675;29;20457;-82
2022/09/29 10:28:18;;;;;;;5.53;3.15;;;14.30;1.00;;;;;;4850598;29;19924;-82
2022/09/29 10:30:44;;;;;;;3.03;2.63;;;14.40;99.90;;;;;;4833215;29;20713;-82
2022/09/29 10:33:16;;;;;;;3.97;2.58;;;14.40;99.90;;;;;;4829044;29;20522;-82
2022/09/29 10:35:47;;;;;;;3.03;2.00;;;14.50;99.90;;;;;;4831638;29;20461;-81
2022/09/29 10:38:19;;;;;;;2.78;2.30;;;14.40;24.10;;;;;;4835750;29;20053;-82
2022/09/29 10:41:01;;;;;;;3.33;2.15;;;14.40;99.90;;;;;;4829763;29;20413;-82
2022/09/29 10:43:38;;;;;;;5.20;2.50;;;14.60;99.90;;;;;;4811710;29;20068;-82
2022/09/29 10:46:24;;;;;;;2.80;2.15;;;14.80;99.90;;;;;;4844101;29;20045;-81
2022/09/29 10:49:13;;;;;;;2.85;1.90;;;14.70;1.00;;;;;;4839133;29;20513;-82
2022/09/29 10:51:57;;;;;;;3.25;2.25;;;14.90;99.90;;;;;;4828987;29;20048;-81
2022/09/29 10:54:27;;;;;;;2.08;1.20;;;15.10;1.00;;;;;;4834870;29;20068;-82
2022/09/29 10:56:54;;;;;;;1.67;1.50;;;15.10;1.00;;;;;;4854608;29;20428;-82
2022/09/29 10:59:27;;;;;;;2.70;1.30;;;15.30;1.00;;;;;;4872005;29;20132;-82
2022/09/29 11:01:57;;;;;;;3.47;1.40;;;15.30;99.90;;;;;;4832766;29;20045;-82
2022/09/29 11:04:36;;;;;;;2.00;1.48;;;15.40;59.90;;;;;;4834872;29;20453;-82
2022/09/29 11:07:09;;;;;;;1.63;1.10;;;15.40;34.40;;;;;;4884083;29;20056;-83
2022/09/29 11:09:44;;;;;;;1.70;1.17;;;15.60;1.00;;;;;;4849377;29;20049;-82
2022/09/29 11:12:33;;;;;;;3.58;1.27;;;15.70;18.80;;;;;;4847936;29;20354;-82
2022/09/29 11:15:00;;;;;;;1.92;1.00;;;15.50;99.90;;;;;;4848378;29;20164;-83
2022/09/29 11:17:29;;;;;;;1.38;0.98;;;15.60;1.00;;;;;;4863354;29;20071;-82
2022/09/29 11:20:01;;;;;;;2.00;0.70;;;15.60;1.00;;;;;;4873043;29;20053;-82
2022/09/29 11:22:32;;;;;;;4.35;1.10;;;16.00;99.90;;;;;;4867162;29;20037;-83
2022/09/29 11:25:36;;;;;;;1.27;0.70;;;16.00;99.90;;;;;;4866833;29;20277;-82
2022/09/29 11:28:26;;;;;;;0.73;0.70;;;15.80;99.90;;;;;;4847842;29;20041;-83
2022/09/29 11:31:25;;;;;;;1.30;1.20;;;15.40;99.90;;;;;;4837373;29;20317;-82
2022/09/29 11:34:16;;;;;;;1.20;0.98;;;15.30;99.90;;;;;;4834994;29;20140;-83
2022/09/29 11:36:49;;;;;;;2.28;1.08;;;16.10;1.00;;;;;;4851192;29;20076;-83
2022/09/29 11:39:26;;;;;;;2.08;1.20;;;16.50;99.90;;;;;;4878083;29;20501;-82
2022/09/29 11:42:19;;;;;;;1.90;0.93;;;16.70;1.00;;;;;;4866593;29;20471;-82
2022/09/29 11:45:02;;;;;;;1.15;1.00;;;16.90;99.90;;;;;;4868898;29;20552;-82
2022/09/29 11:47:34;;;;;;;1.80;1.00;;;17.10;1.00;;;;;;4838930;29;20041;-82
2022/09/29 11:50:12;;;;;;;2.15;0.95;;;16.10;99.90;;;;;;4879889;29;20045;-83
2022/09/29 11:52:50;;;;;;;2.70;1.15;;;15.70;1.00;;;;;;4864579;29;20064;-82
2022/09/29 11:55:15;;;;;;;1.20;0.60;;;15.50;1.00;;;;;;4856664;29;20548;-83
2022/09/29 11:57:54;;;;;;;1.20;0.75;;;15.50;99.90;;;;;;4853328;29;20063;-83
2022/09/29 12:00:27;;;;;;;1.17;0.75;;;15.50;97.30;;;;;;4859697;29;20817;-82
2022/09/29 12:03:15;;;;;;;0.70;0.70;;;15.60;1.00;;;;;;4863148;29;20156;-82
2022/09/29 12:06:09;;;;;;;2.10;1.20;;;15.60;1.00;;;;;;4884658;29;20053;-81
2022/09/29 12:08:47;;;;;;;1.23;0.80;;;15.60;99.90;;;;;;4881592;29;20197;-83
2022/09/29 12:11:23;;;;;;;0.70;0.65;;;15.70;1.00;;;;;;4851911;29;20425;-82
2022/09/29 12:14:06;;;;;;;0.50;0.50;;;16.50;99.90;;;;;;4861756;29;20049;-83
2022/09/29 12:16:35;;;;;;;0.80;0.68;;;17.00;99.90;;;;;;4868798;29;20323;-82
2022/09/29 12:19:08;;;;;;;1.23;0.90;;;17.10;99.90;;;;;;4840826;29;20076;-82
2022/09/29 12:21:39;;;;;;;1.77;1.13;;;17.40;68.20;;;;;;4855599;29;20484;-83
2022/09/29 12:24:18;;;;;;;1.77;0.98;;;16.90;99.90;;;;;;4875482;29;20049;-83
2022/09/29 12:26:47;;;;;;;1.13;0.85;;;16.70;23.20;;;;;;4849171;29;20067;-82
2022/09/29 12:29:33;;;;;;;2.03;1.10;;;16.60;99.90;;;;;;4865698;29;20402;-82
2022/09/29 12:32:07;;;;;;;1.33;1.20;;;16.20;99.90;;;;;;4852505;29;20537;-83
2022/09/29 12:34:57;;;;;;;2.35;1.10;;;16.10;49.60;;;;;;4858150;29;20041;-82
2022/09/29 12:37:42;;;;;;;0.75;0.75;;;16.50;1.00;;;;;;4863680;29;20458;-83
2022/09/29 12:40:31;;;;;;;2.13;1.20;;;16.50;99.90;;;;;;4865492;29;20044;-82
2022/09/29 12:43:14;;;;;;;1.70;1.20;;;16.20;99.90;;;;;;4842285;29;20401;-82
2022/09/29 12:45:47;;;;;;;1.67;0.80;;;15.90;64.90;;;;;;4845209;29;20501;-82
2022/09/29 12:48:48;;;;;;;2.03;0.90;;;15.90;99.90;;;;;;4855997;29;20037;-82
2022/09/29 12:51:47;;;;;;;1.17;0.90;;;15.80;1.00;;;;;;4869399;29;20055;-82
2022/09/29 12:54:31;;;;;;;1.45;0.68;;;15.80;1.00;;;;;;4837647;29;20446;-82
2022/09/29 12:57:10;;;;;;;1.10;0.70;;;16.10;1.00;;;;;;4831230;29;20037;-82
2022/09/29 12:59:48;;;;;;;1.02;0.68;;;17.30;12.20;;;;;;4849032;29;20045;-83
2022/09/29 13:02:33;;;;;;;1.35;1.05;;;17.60;99.70;;;;;;4845082;29;20053;-82
2022/09/29 13:05:19;;;;;;;1.27;0.90;;;17.10;63.10;;;;;;4833620;29;20048;-83
2022/09/29 13:08:12;;;;;;;1.13;1.02;;;16.70;99.90;;;;;;4851948;29;20053;-82
2022/09/29 13:10:53;;;;;;;2.67;1.00;;;16.20;99.90;;;;;;4829191;29;20057;-82
2022/09/29 13:13:50;;;;;;;1.55;1.15;;;15.90;99.90;;;;;;4830546;29;20483;-82